sensor_id;sensor_type;location;lat;lon;timestamp;pressure;altitude;pressure_sealevel;temperature;humidity
27840;BME280;15207;42.182;24.308;2023-04-06T00:00:23;99039.19;;;4.01;63.91
27840;BME280;15207;42.182;24.308;2023-04-06T00:02:48;99034.25;;;3.94;62.97
27840;BME280;15207;42.182;24.308;2023-04-06T00:05:14;99029.13;;;4.07;63.44
27840;BME280;15207;42.182;24.308;2023-04-06T00:07:40;99031.25;;;4.17;63.10
27840;BME280;15207;42.182;24.308;2023-04-06T00:10:06;99026.03;;;4.15;62.87
27840;BME280;15207;42.182;24.308;2023-04-06T00:12:32;99026.72;;;4.03;62.24
27840;BME280;15207;42.182;24.308;2023-04-06T00:14:57;99025.59;;;4.07;63.00
27840;BME280;15207;42.182;24.308;2023-04-06T00:17:23;99020.03;;;4.12;63.65
27840;BME280;15207;42.182;24.308;2023-04-06T00:19:48;99021.69;;;4.14;62.89
27840;BME280;15207;42.182;24.308;2023-04-06T00:22:14;99011.91;;;4.15;63.08
27840;BME280;15207;42.182;24.308;2023-04-06T00:24:39;99020.28;;;4.23;63.34
27840;BME280;15207;42.182;24.308;2023-04-06T00:27:05;99006.00;;;4.26;62.81
27840;BME280;15207;42.182;24.308;2023-04-06T00:29:30;98998.63;;;4.31;63.46
27840;BME280;15207;42.182;24.308;2023-04-06T00:31:56;98997.38;;;4.22;62.42
27840;BME280;15207;42.182;24.308;2023-04-06T00:34:21;99002.63;;;4.07;62.55
27840;BME280;15207;42.182;24.308;2023-04-06T00:36:47;98994.22;;;3.83;62.82
27840;BME280;15207;42.182;24.308;2023-04-06T00:39:12;98985.97;;;3.73;64.03
27840;BME280;15207;42.182;24.308;2023-04-06T00:41:39;98990.03;;;3.79;64.64
27840;BME280;15207;42.182;24.308;2023-04-06T00:44:09;98991.06;;;3.76;65.47
27840;BME280;15207;42.182;24.308;2023-04-06T00:46:34;98992.59;;;3.80;65.73
27840;BME280;15207;42.182;24.308;2023-04-06T00:49:00;98987.59;;;3.76;65.17
27840;BME280;15207;42.182;24.308;2023-04-06T00:51:26;98989.97;;;3.80;64.31
27840;BME280;15207;42.182;24.308;2023-04-06T00:53:52;98980.97;;;3.83;64.12
27840;BME280;15207;42.182;24.308;2023-04-06T00:56:18;98982.53;;;3.71;63.40
27840;BME280;15207;42.182;24.308;2023-04-06T00:58:44;98976.38;;;3.54;63.72
27840;BME280;15207;42.182;24.308;2023-04-06T01:01:09;98967.69;;;3.52;64.45
27840;BME280;15207;42.182;24.308;2023-04-06T01:03:35;98974.13;;;3.30;64.37
27840;BME280;15207;42.182;24.308;2023-04-06T01:06:01;98973.72;;;3.22;65.05
27840;BME280;15207;42.182;24.308;2023-04-06T01:08:27;98974.81;;;3.18;65.36
27840;BME280;15207;42.182;24.308;2023-04-06T01:10:52;98973.00;;;3.18;65.87
27840;BME280;15207;42.182;24.308;2023-04-06T01:13:18;98972.72;;;3.07;66.77
27840;BME280;15207;42.182;24.308;2023-04-06T01:15:43;98971.75;;;2.92;67.67
27840;BME280;15207;42.182;24.308;2023-04-06T01:18:09;98977.75;;;2.96;68.35
27840;BME280;15207;42.182;24.308;2023-04-06T01:20:38;98965.31;;;3.14;66.78
27840;BME280;15207;42.182;24.308;2023-04-06T01:23:03;98965.75;;;2.88;66.81
27840;BME280;15207;42.182;24.308;2023-04-06T01:25:29;98961.75;;;2.63;67.74
27840;BME280;15207;42.182;24.308;2023-04-06T01:27:55;98966.00;;;2.84;67.93
27840;BME280;15207;42.182;24.308;2023-04-06T01:30:21;98955.16;;;2.88;68.78
27840;BME280;15207;42.182;24.308;2023-04-06T01:32:48;98951.22;;;2.97;67.48
27840;BME280;15207;42.182;24.308;2023-04-06T01:35:13;98947.47;;;3.01;67.17
27840;BME280;15207;42.182;24.308;2023-04-06T01:37:39;98948.97;;;3.06;66.58
27840;BME280;15207;42.182;24.308;2023-04-06T01:40:06;98948.97;;;3.06;66.05
27840;BME280;15207;42.182;24.308;2023-04-06T01:42:32;98952.75;;;3.17;65.94
27840;BME280;15207;42.182;24.308;2023-04-06T01:44:57;98949.78;;;3.08;65.94
27840;BME280;15207;42.182;24.308;2023-04-06T01:47:23;98943.00;;;3.02;66.39
27840;BME280;15207;42.182;24.308;2023-04-06T01:49:48;98941.09;;;2.88;66.69
27840;BME280;15207;42.182;24.308;2023-04-06T01:52:14;98941.50;;;2.80;67.36
27840;BME280;15207;42.182;24.308;2023-04-06T01:54:41;98946.22;;;2.91;68.17
27840;BME280;15207;42.182;24.308;2023-04-06T01:57:06;98934.13;;;2.87;68.17
27840;BME280;15207;42.182;24.308;2023-04-06T01:59:31;98941.78;;;2.91;68.66
27840;BME280;15207;42.182;24.308;2023-04-06T02:01:57;98935.63;;;2.91;68.05
27840;BME280;15207;42.182;24.308;2023-04-06T02:04:22;98937.59;;;2.87;68.08
27840;BME280;15207;42.182;24.308;2023-04-06T02:06:48;98932.91;;;2.93;67.88
27840;BME280;15207;42.182;24.308;2023-04-06T02:09:14;98932.38;;;2.86;68.35
27840;BME280;15207;42.182;24.308;2023-04-06T02:11:39;98932.63;;;2.81;68.39
27840;BME280;15207;42.182;24.308;2023-04-06T02:14:05;98931.97;;;2.60;69.54
27840;BME280;15207;42.182;24.308;2023-04-06T02:16:30;98934.16;;;2.51;70.85
27840;BME280;15207;42.182;24.308;2023-04-06T02:18:56;98940.63;;;2.46;70.66
27840;BME280;15207;42.182;24.308;2023-04-06T02:21:22;98928.50;;;2.42;71.60
27840;BME280;15207;42.182;24.308;2023-04-06T02:23:47;98939.06;;;2.42;71.45
27840;BME280;15207;42.182;24.308;2023-04-06T02:26:14;98939.13;;;2.40;71.39
27840;BME280;15207;42.182;24.308;2023-04-06T02:28:41;98932.84;;;2.43;71.63
27840;BME280;15207;42.182;24.308;2023-04-06T02:31:07;98940.75;;;2.43;70.60
27840;BME280;15207;42.182;24.308;2023-04-06T02:33:32;98938.75;;;2.30;70.21
27840;BME280;15207;42.182;24.308;2023-04-06T02:35:58;98932.69;;;2.28;71.29
27840;BME280;15207;42.182;24.308;2023-04-06T02:38:23;98937.06;;;2.29;71.77
27840;BME280;15207;42.182;24.308;2023-04-06T02:40:49;98943.34;;;2.27;72.00
27840;BME280;15207;42.182;24.308;2023-04-06T02:43:15;98943.81;;;2.17;72.67
27840;BME280;15207;42.182;24.308;2023-04-06T02:45:42;98941.31;;;2.14;73.39
27840;BME280;15207;42.182;24.308;2023-04-06T02:48:07;98945.59;;;2.17;72.90
27840;BME280;15207;42.182;24.308;2023-04-06T02:50:33;98936.72;;;2.18;72.68
27840;BME280;15207;42.182;24.308;2023-04-06T02:52:58;98940.09;;;2.21;73.16
27840;BME280;15207;42.182;24.308;2023-04-06T02:55:24;98933.06;;;2.20;72.52
27840;BME280;15207;42.182;24.308;2023-04-06T02:57:49;98933.63;;;2.27;72.78
27840;BME280;15207;42.182;24.308;2023-04-06T03:00:15;98940.53;;;2.30;72.71
27840;BME280;15207;42.182;24.308;2023-04-06T03:02:41;98943.34;;;2.27;72.95
27840;BME280;15207;42.182;24.308;2023-04-06T03:05:06;98944.25;;;2.25;73.78
27840;BME280;15207;42.182;24.308;2023-04-06T03:07:32;98941.53;;;2.27;76.02
27840;BME280;15207;42.182;24.308;2023-04-06T03:09:58;98942.56;;;2.24;77.40
27840;BME280;15207;42.182;24.308;2023-04-06T03:12:23;98947.41;;;2.16;77.83
27840;BME280;15207;42.182;24.308;2023-04-06T03:14:49;98934.47;;;2.10;78.58
27840;BME280;15207;42.182;24.308;2023-04-06T03:17:14;98934.41;;;1.94;79.31
27840;BME280;15207;42.182;24.308;2023-04-06T03:19:40;98944.16;;;1.92;79.54
27840;BME280;15207;42.182;24.308;2023-04-06T03:22:05;98942.59;;;1.88;79.36
27840;BME280;15207;42.182;24.308;2023-04-06T03:24:31;98944.41;;;1.87;80.02
27840;BME280;15207;42.182;24.308;2023-04-06T03:26:56;98934.78;;;1.86;80.13
27840;BME280;15207;42.182;24.308;2023-04-06T03:29:22;98938.13;;;1.90;80.09
27840;BME280;15207;42.182;24.308;2023-04-06T03:31:47;98934.47;;;1.92;79.84
27840;BME280;15207;42.182;24.308;2023-04-06T03:34:13;98935.09;;;1.97;79.73
27840;BME280;15207;42.182;24.308;2023-04-06T03:36:39;98944.56;;;2.02;79.77
27840;BME280;15207;42.182;24.308;2023-04-06T03:39:04;98938.28;;;2.04;79.42
27840;BME280;15207;42.182;24.308;2023-04-06T03:41:30;98941.84;;;2.03;79.32
27840;BME280;15207;42.182;24.308;2023-04-06T03:43:55;98954.22;;;2.03;78.64
27840;BME280;15207;42.182;24.308;2023-04-06T03:46:21;98949.63;;;2.06;78.66
27840;BME280;15207;42.182;24.308;2023-04-06T03:48:48;98952.19;;;2.08;78.50
27840;BME280;15207;42.182;24.308;2023-04-06T03:51:14;98956.63;;;2.07;79.24
27840;BME280;15207;42.182;24.308;2023-04-06T03:53:39;98947.84;;;2.07;78.75
27840;BME280;15207;42.182;24.308;2023-04-06T03:56:05;98947.84;;;2.07;79.19
27840;BME280;15207;42.182;24.308;2023-04-06T03:58:31;98954.69;;;2.11;78.78
27840;BME280;15207;42.182;24.308;2023-04-06T04:00:56;98943.78;;;2.00;77.13
27840;BME280;15207;42.182;24.308;2023-04-06T04:03:22;98949.75;;;2.03;76.51
27840;BME280;15207;42.182;24.308;2023-04-06T04:05:53;98953.97;;;2.07;75.78
27840;BME280;15207;42.182;24.308;2023-04-06T04:08:20;98958.34;;;2.08;75.59
27840;BME280;15207;42.182;24.308;2023-04-06T04:10:45;98954.47;;;2.16;75.17
27840;BME280;15207;42.182;24.308;2023-04-06T04:13:11;98955.16;;;2.19;74.40
27840;BME280;15207;42.182;24.308;2023-04-06T04:15:36;98963.38;;;2.31;74.24
27840;BME280;15207;42.182;24.308;2023-04-06T04:18:02;98958.56;;;2.39;74.42
27840;BME280;15207;42.182;24.308;2023-04-06T04:20:28;98958.66;;;2.55;73.49
27840;BME280;15207;42.182;24.308;2023-04-06T04:22:53;98968.28;;;2.56;72.90
27840;BME280;15207;42.182;24.308;2023-04-06T04:25:19;98964.72;;;2.57;72.74
27840;BME280;15207;42.182;24.308;2023-04-06T04:27:45;98965.41;;;2.61;73.37
27840;BME280;15207;42.182;24.308;2023-04-06T04:30:10;98963.91;;;2.73;73.97
27840;BME280;15207;42.182;24.308;2023-04-06T04:32:36;98969.41;;;2.86;73.74
27840;BME280;15207;42.182;24.308;2023-04-06T04:35:01;98963.72;;;2.94;73.49
27840;BME280;15207;42.182;24.308;2023-04-06T04:37:27;98965.28;;;2.98;72.81
27840;BME280;15207;42.182;24.308;2023-04-06T04:39:53;98960.03;;;3.14;72.69
27840;BME280;15207;42.182;24.308;2023-04-06T04:42:18;98960.47;;;3.22;70.93
27840;BME280;15207;42.182;24.308;2023-04-06T04:44:43;98955.38;;;3.35;70.02
27840;BME280;15207;42.182;24.308;2023-04-06T04:47:09;98961.94;;;3.44;69.46
27840;BME280;15207;42.182;24.308;2023-04-06T04:49:35;98961.00;;;3.61;69.11
27840;BME280;15207;42.182;24.308;2023-04-06T04:52:00;98964.09;;;3.69;68.81
27840;BME280;15207;42.182;24.308;2023-04-06T04:54:26;98962.72;;;3.78;67.67
27840;BME280;15207;42.182;24.308;2023-04-06T04:56:51;98959.03;;;3.97;67.60
27840;BME280;15207;42.182;24.308;2023-04-06T04:59:17;98963.53;;;4.11;66.06
27840;BME280;15207;42.182;24.308;2023-04-06T05:01:42;98962.03;;;4.21;65.29
27840;BME280;15207;42.182;24.308;2023-04-06T05:04:08;98974.44;;;4.21;65.61
27840;BME280;15207;42.182;24.308;2023-04-06T05:06:33;98953.81;;;4.26;65.71
27840;BME280;15207;42.182;24.308;2023-04-06T05:08:59;98958.78;;;4.32;64.71
27840;BME280;15207;42.182;24.308;2023-04-06T05:11:25;98957.75;;;4.35;64.00
27840;BME280;15207;42.182;24.308;2023-04-06T05:13:51;98948.91;;;4.34;63.62
27840;BME280;15207;42.182;24.308;2023-04-06T05:16:17;98950.53;;;4.37;62.45
27840;BME280;15207;42.182;24.308;2023-04-06T05:18:42;98948.97;;;4.49;62.70
27840;BME280;15207;42.182;24.308;2023-04-06T05:21:09;98956.16;;;4.61;61.90
27840;BME280;15207;42.182;24.308;2023-04-06T05:23:34;98944.09;;;5.01;61.08
27840;BME280;15207;42.182;24.308;2023-04-06T05:26:00;98947.91;;;5.53;58.90
27840;BME280;15207;42.182;24.308;2023-04-06T05:28:26;98949.94;;;6.19;55.73
27840;BME280;15207;42.182;24.308;2023-04-06T05:30:52;98943.41;;;6.64;53.38
27840;BME280;15207;42.182;24.308;2023-04-06T05:33:18;98940.94;;;7.26;52.99
27840;BME280;15207;42.182;24.308;2023-04-06T05:35:44;98939.31;;;7.74;49.98
27840;BME280;15207;42.182;24.308;2023-04-06T05:38:09;98942.41;;;8.41;49.63
27840;BME280;15207;42.182;24.308;2023-04-06T05:40:36;98938.06;;;8.87;46.88
27840;BME280;15207;42.182;24.308;2023-04-06T05:43:03;98936.88;;;9.03;46.28
27840;BME280;15207;42.182;24.308;2023-04-06T05:45:29;98933.34;;;9.36;45.52
27840;BME280;15207;42.182;24.308;2023-04-06T05:47:55;98927.22;;;9.57;45.38
27840;BME280;15207;42.182;24.308;2023-04-06T05:50:21;98922.16;;;9.98;44.75
27840;BME280;15207;42.182;24.308;2023-04-06T05:52:47;98919.63;;;10.18;43.22
27840;BME280;15207;42.182;24.308;2023-04-06T05:55:13;98917.50;;;10.33;43.18
27840;BME280;15207;42.182;24.308;2023-04-06T05:57:38;98912.75;;;10.58;42.13
27840;BME280;15207;42.182;24.308;2023-04-06T06:00:05;98916.16;;;10.60;42.13
27840;BME280;15207;42.182;24.308;2023-04-06T06:02:33;98916.66;;;10.75;41.75
27840;BME280;15207;42.182;24.308;2023-04-06T06:04:58;98916.53;;;10.98;41.17
27840;BME280;15207;42.182;24.308;2023-04-06T06:07:24;98908.81;;;11.05;41.17
27840;BME280;15207;42.182;24.308;2023-04-06T06:09:49;98909.28;;;11.20;41.11
27840;BME280;15207;42.182;24.308;2023-04-06T06:12:15;98912.84;;;11.30;40.76
27840;BME280;15207;42.182;24.308;2023-04-06T06:14:41;98905.88;;;11.69;40.69
27840;BME280;15207;42.182;24.308;2023-04-06T06:17:07;98903.94;;;11.81;40.05
27840;BME280;15207;42.182;24.308;2023-04-06T06:19:33;98906.19;;;11.85;38.79
27840;BME280;15207;42.182;24.308;2023-04-06T06:21:59;98894.91;;;12.01;38.61
27840;BME280;15207;42.182;24.308;2023-04-06T06:24:26;98903.66;;;11.94;38.21
27840;BME280;15207;42.182;24.308;2023-04-06T06:26:53;98893.56;;;11.56;38.96
27840;BME280;15207;42.182;24.308;2023-04-06T06:29:18;98891.44;;;11.50;39.09
27840;BME280;15207;42.182;24.308;2023-04-06T06:31:44;98885.94;;;11.51;39.75
27840;BME280;15207;42.182;24.308;2023-04-06T06:34:10;98883.97;;;11.54;40.30
27840;BME280;15207;42.182;24.308;2023-04-06T06:36:35;98884.97;;;11.53;39.57
27840;BME280;15207;42.182;24.308;2023-04-06T06:39:02;98891.44;;;11.40;40.32
27840;BME280;15207;42.182;24.308;2023-04-06T06:41:29;98886.13;;;11.19;40.31
27840;BME280;15207;42.182;24.308;2023-04-06T06:43:54;98878.06;;;11.09;40.74
27840;BME280;15207;42.182;24.308;2023-04-06T06:46:20;98887.06;;;10.98;40.79
27840;BME280;15207;42.182;24.308;2023-04-06T06:48:46;98885.03;;;11.21;41.03
27840;BME280;15207;42.182;24.308;2023-04-06T06:51:13;98881.59;;;11.50;40.27
27840;BME280;15207;42.182;24.308;2023-04-06T06:53:38;98875.78;;;11.45;39.47
27840;BME280;15207;42.182;24.308;2023-04-06T06:56:04;98879.97;;;11.38;39.78
27840;BME280;15207;42.182;24.308;2023-04-06T06:58:30;98881.28;;;11.54;39.89
27840;BME280;15207;42.182;24.308;2023-04-06T07:00:57;98888.09;;;11.77;39.36
27840;BME280;15207;42.182;24.308;2023-04-06T07:03:22;98877.38;;;11.77;38.64
27840;BME280;15207;42.182;24.308;2023-04-06T07:05:49;98879.44;;;11.44;39.59
27840;BME280;15207;42.182;24.308;2023-04-06T07:08:22;98871.06;;;11.18;39.76
27840;BME280;15207;42.182;24.308;2023-04-06T07:10:49;98870.56;;;11.03;40.38
27840;BME280;15207;42.182;24.308;2023-04-06T07:13:15;98868.69;;;10.93;41.13
27840;BME280;15207;42.182;24.308;2023-04-06T07:15:48;98862.91;;;11.39;41.41
27840;BME280;15207;42.182;24.308;2023-04-06T07:18:14;98864.84;;;12.08;40.09
27840;BME280;15207;42.182;24.308;2023-04-06T07:20:41;98860.75;;;12.33;39.16
27840;BME280;15207;42.182;24.308;2023-04-06T07:23:07;98862.97;;;12.48;38.20
27840;BME280;15207;42.182;24.308;2023-04-06T07:25:32;98850.50;;;12.56;38.45
27840;BME280;15207;42.182;24.308;2023-04-06T07:27:58;98861.25;;;12.47;38.52
27840;BME280;15207;42.182;24.308;2023-04-06T07:30:24;98859.16;;;12.40;38.32
27840;BME280;15207;42.182;24.308;2023-04-06T07:32:54;98850.25;;;12.50;37.98
27840;BME280;15207;42.182;24.308;2023-04-06T07:35:22;98854.06;;;12.37;38.78
27840;BME280;15207;42.182;24.308;2023-04-06T07:37:47;98847.50;;;12.60;38.51
27840;BME280;15207;42.182;24.308;2023-04-06T07:40:16;98852.44;;;12.07;38.65
27840;BME280;15207;42.182;24.308;2023-04-06T07:42:42;98847.28;;;12.03;38.75
27840;BME280;15207;42.182;24.308;2023-04-06T07:45:07;98845.75;;;11.81;39.89
27840;BME280;15207;42.182;24.308;2023-04-06T07:47:33;98845.06;;;11.79;40.01
27840;BME280;15207;42.182;24.308;2023-04-06T07:49:59;98847.47;;;12.12;39.63
27840;BME280;15207;42.182;24.308;2023-04-06T07:52:25;98842.66;;;12.15;38.71
27840;BME280;15207;42.182;24.308;2023-04-06T07:54:50;98841.38;;;12.20;38.92
27840;BME280;15207;42.182;24.308;2023-04-06T07:57:17;98829.13;;;12.65;40.08
27840;BME280;15207;42.182;24.308;2023-04-06T07:59:43;98830.88;;;13.22;37.76
27840;BME280;15207;42.182;24.308;2023-04-06T08:02:08;98831.56;;;13.52;36.48
27840;BME280;15207;42.182;24.308;2023-04-06T08:04:35;98842.25;;;13.62;36.20
27840;BME280;15207;42.182;24.308;2023-04-06T08:07:01;98833.06;;;13.36;36.96
27840;BME280;15207;42.182;24.308;2023-04-06T08:09:26;98833.34;;;13.33;37.34
27840;BME280;15207;42.182;24.308;2023-04-06T08:11:52;98837.81;;;13.43;37.17
27840;BME280;15207;42.182;24.308;2023-04-06T08:14:18;98834.84;;;13.46;37.71
27840;BME280;15207;42.182;24.308;2023-04-06T08:16:44;98830.19;;;13.48;36.89
27840;BME280;15207;42.182;24.308;2023-04-06T08:19:09;98823.22;;;13.45;36.97
27840;BME280;15207;42.182;24.308;2023-04-06T08:21:36;98817.66;;;13.57;36.60
27840;BME280;15207;42.182;24.308;2023-04-06T08:24:02;98825.75;;;13.29;36.55
27840;BME280;15207;42.182;24.308;2023-04-06T08:26:28;98825.34;;;12.95;37.31
27840;BME280;15207;42.182;24.308;2023-04-06T08:28:54;98815.78;;;13.11;39.16
27840;BME280;15207;42.182;24.308;2023-04-06T08:31:20;98823.16;;;13.09;37.71
27840;BME280;15207;42.182;24.308;2023-04-06T08:33:46;98818.06;;;13.34;37.50
27840;BME280;15207;42.182;24.308;2023-04-06T08:36:13;98820.03;;;13.32;37.67
27840;BME280;15207;42.182;24.308;2023-04-06T08:38:40;98813.47;;;13.44;38.08
27840;BME280;15207;42.182;24.308;2023-04-06T08:41:10;98815.66;;;13.77;36.75
27840;BME280;15207;42.182;24.308;2023-04-06T08:43:44;98817.06;;;13.81;36.90
27840;BME280;15207;42.182;24.308;2023-04-06T08:46:11;98816.50;;;13.59;36.02
27840;BME280;15207;42.182;24.308;2023-04-06T08:48:38;98818.31;;;13.41;36.07
27840;BME280;15207;42.182;24.308;2023-04-06T08:51:05;98817.22;;;13.33;36.61
27840;BME280;15207;42.182;24.308;2023-04-06T08:53:31;98813.06;;;13.21;36.20
27840;BME280;15207;42.182;24.308;2023-04-06T08:55:58;98813.97;;;13.30;36.53
27840;BME280;15207;42.182;24.308;2023-04-06T08:58:25;98809.19;;;12.67;36.62
27840;BME280;15207;42.182;24.308;2023-04-06T09:00:52;98807.53;;;12.56;37.76
27840;BME280;15207;42.182;24.308;2023-04-06T09:03:18;98802.44;;;12.91;37.66
27840;BME280;15207;42.182;24.308;2023-04-06T09:05:46;98795.38;;;13.18;36.50
27840;BME280;15207;42.182;24.308;2023-04-06T09:08:12;98789.25;;;13.26;36.87
27840;BME280;15207;42.182;24.308;2023-04-06T09:10:40;98794.19;;;13.49;36.66
27840;BME280;15207;42.182;24.308;2023-04-06T09:13:07;98785.72;;;13.44;36.33
27840;BME280;15207;42.182;24.308;2023-04-06T09:15:33;98770.16;;;13.01;37.00
27840;BME280;15207;42.182;24.308;2023-04-06T09:18:00;98773.53;;;13.03;37.47
27840;BME280;15207;42.182;24.308;2023-04-06T09:20:26;98771.84;;;13.02;37.32
27840;BME280;15207;42.182;24.308;2023-04-06T09:22:54;98770.66;;;12.87;37.82
27840;BME280;15207;42.182;24.308;2023-04-06T09:25:22;98765.34;;;12.95;38.97
27840;BME280;15207;42.182;24.308;2023-04-06T09:28:03;98766.00;;;13.07;37.75
27840;BME280;15207;42.182;24.308;2023-04-06T09:30:29;98757.25;;;13.05;37.96
27840;BME280;15207;42.182;24.308;2023-04-06T09:32:56;98766.50;;;13.39;37.64
27840;BME280;15207;42.182;24.308;2023-04-06T09:35:23;98763.66;;;13.22;36.45
27840;BME280;15207;42.182;24.308;2023-04-06T09:37:50;98754.81;;;13.12;36.70
27840;BME280;15207;42.182;24.308;2023-04-06T09:40:17;98749.22;;;13.23;36.59
27840;BME280;15207;42.182;24.308;2023-04-06T09:42:48;98745.38;;;13.26;37.12
27840;BME280;15207;42.182;24.308;2023-04-06T09:45:15;98743.28;;;13.19;37.68
27840;BME280;15207;42.182;24.308;2023-04-06T09:47:45;98747.69;;;13.39;38.42
27840;BME280;15207;42.182;24.308;2023-04-06T09:50:14;98740.63;;;13.56;37.51
27840;BME280;15207;42.182;24.308;2023-04-06T09:52:46;98738.06;;;13.36;37.60
27840;BME280;15207;42.182;24.308;2023-04-06T09:55:20;98738.34;;;13.15;37.29
27840;BME280;15207;42.182;24.308;2023-04-06T09:57:55;98740.72;;;13.00;37.41
27840;BME280;15207;42.182;24.308;2023-04-06T10:00:25;98742.50;;;12.91;37.98
27840;BME280;15207;42.182;24.308;2023-04-06T10:05:37;98737.69;;;13.13;38.12
27840;BME280;15207;42.182;24.308;2023-04-06T10:08:06;98748.78;;;13.46;38.11
27840;BME280;15207;42.182;24.308;2023-04-06T10:10:34;98737.66;;;13.59;37.26
27840;BME280;15207;42.182;24.308;2023-04-06T10:12:59;98743.66;;;13.71;38.36
27840;BME280;15207;42.182;24.308;2023-04-06T10:15:25;98736.50;;;13.88;37.03
27840;BME280;15207;42.182;24.308;2023-04-06T10:17:52;98741.88;;;14.06;36.78
27840;BME280;15207;42.182;24.308;2023-04-06T10:23:12;98737.16;;;13.82;36.75
27840;BME280;15207;42.182;24.308;2023-04-06T10:25:58;98726.25;;;14.10;36.96
27840;BME280;15207;42.182;24.308;2023-04-06T10:28:24;98737.56;;;14.13;36.41
27840;BME280;15207;42.182;24.308;2023-04-06T10:30:57;98726.66;;;13.70;36.84
27840;BME280;15207;42.182;24.308;2023-04-06T10:33:23;98726.34;;;13.73;37.00
27840;BME280;15207;42.182;24.308;2023-04-06T10:35:48;98715.97;;;13.79;36.82
27840;BME280;15207;42.182;24.308;2023-04-06T10:38:14;98717.41;;;13.73;38.17
27840;BME280;15207;42.182;24.308;2023-04-06T10:40:41;98717.94;;;13.77;35.81
27840;BME280;15207;42.182;24.308;2023-04-06T10:43:12;98715.72;;;13.72;37.63
27840;BME280;15207;42.182;24.308;2023-04-06T10:45:39;98718.03;;;13.67;38.16
27840;BME280;15207;42.182;24.308;2023-04-06T10:48:16;98703.69;;;13.84;37.27
27840;BME280;15207;42.182;24.308;2023-04-06T10:50:47;98703.28;;;13.97;36.82
27840;BME280;15207;42.182;24.308;2023-04-06T10:53:24;98706.03;;;14.32;37.72
27840;BME280;15207;42.182;24.308;2023-04-06T10:55:52;98700.47;;;14.34;36.10
27840;BME280;15207;42.182;24.308;2023-04-06T10:58:19;98698.88;;;14.49;35.70
27840;BME280;15207;42.182;24.308;2023-04-06T11:00:47;98700.66;;;14.40;36.66
27840;BME280;15207;42.182;24.308;2023-04-06T11:03:13;98688.03;;;14.41;35.93
27840;BME280;15207;42.182;24.308;2023-04-06T11:05:40;98688.81;;;14.60;36.15
27840;BME280;15207;42.182;24.308;2023-04-06T11:08:08;98686.78;;;14.53;36.04
27840;BME280;15207;42.182;24.308;2023-04-06T11:10:33;98689.53;;;14.35;35.04
27840;BME280;15207;42.182;24.308;2023-04-06T11:12:59;98674.88;;;14.38;35.69
27840;BME280;15207;42.182;24.308;2023-04-06T11:15:25;98675.59;;;14.40;36.12
27840;BME280;15207;42.182;24.308;2023-04-06T11:17:50;98669.94;;;14.25;36.52
27840;BME280;15207;42.182;24.308;2023-04-06T11:20:16;98682.03;;;14.12;35.94
27840;BME280;15207;42.182;24.308;2023-04-06T11:22:51;98669.66;;;14.01;35.54
27840;BME280;15207;42.182;24.308;2023-04-06T11:25:17;98657.16;;;13.92;35.45
27840;BME280;15207;42.182;24.308;2023-04-06T11:27:44;98676.47;;;14.14;35.89
27840;BME280;15207;42.182;24.308;2023-04-06T11:30:10;98672.41;;;14.10;35.51
27840;BME280;15207;42.182;24.308;2023-04-06T11:32:44;98669.38;;;14.13;35.41
27840;BME280;15207;42.182;24.308;2023-04-06T11:35:22;98665.00;;;14.12;35.33
27840;BME280;15207;42.182;24.308;2023-04-06T11:37:51;98675.47;;;14.15;35.28
27840;BME280;15207;42.182;24.308;2023-04-06T11:40:22;98664.53;;;14.17;35.27
27840;BME280;15207;42.182;24.308;2023-04-06T11:42:53;98663.94;;;14.31;35.24
27840;BME280;15207;42.182;24.308;2023-04-06T11:45:19;98665.59;;;13.97;35.94
27840;BME280;15207;42.182;24.308;2023-04-06T11:47:54;98669.44;;;13.95;36.22
27840;BME280;15207;42.182;24.308;2023-04-06T11:50:20;98665.41;;;13.91;36.07
27840;BME280;15207;42.182;24.308;2023-04-06T11:52:46;98668.84;;;14.01;35.06
27840;BME280;15207;42.182;24.308;2023-04-06T11:55:22;98669.66;;;13.75;34.71
27840;BME280;15207;42.182;24.308;2023-04-06T11:57:48;98665.16;;;13.57;35.23
27840;BME280;15207;42.182;24.308;2023-04-06T12:00:15;98664.69;;;13.62;35.99
27840;BME280;15207;42.182;24.308;2023-04-06T12:02:45;98672.00;;;13.52;36.05
27840;BME280;15207;42.182;24.308;2023-04-06T12:05:11;98662.94;;;13.53;34.83
27840;BME280;15207;42.182;24.308;2023-04-06T12:07:36;98664.31;;;13.39;36.06
27840;BME280;15207;42.182;24.308;2023-04-06T12:10:04;98675.56;;;13.52;35.71
27840;BME280;15207;42.182;24.308;2023-04-06T12:12:30;98662.38;;;13.67;35.45
27840;BME280;15207;42.182;24.308;2023-04-06T12:14:56;98667.31;;;13.98;34.84
27840;BME280;15207;42.182;24.308;2023-04-06T12:17:22;98673.06;;;14.04;34.81
27840;BME280;15207;42.182;24.308;2023-04-06T12:19:48;98664.28;;;14.01;35.89
27840;BME280;15207;42.182;24.308;2023-04-06T12:22:14;98662.91;;;13.97;35.62
27840;BME280;15207;42.182;24.308;2023-04-06T12:24:39;98655.00;;;13.96;35.10
27840;BME280;15207;42.182;24.308;2023-04-06T12:27:06;98656.34;;;13.92;34.73
27840;BME280;15207;42.182;24.308;2023-04-06T12:29:32;98648.94;;;13.94;35.19
27840;BME280;15207;42.182;24.308;2023-04-06T12:31:57;98652.72;;;14.09;34.77
27840;BME280;15207;42.182;24.308;2023-04-06T12:34:23;98653.28;;;14.21;34.64
27840;BME280;15207;42.182;24.308;2023-04-06T12:36:50;98651.66;;;14.28;34.39
27840;BME280;15207;42.182;24.308;2023-04-06T12:39:16;98653.84;;;14.33;34.46
27840;BME280;15207;42.182;24.308;2023-04-06T12:41:43;98663.38;;;14.19;34.68
27840;BME280;15207;42.182;24.308;2023-04-06T12:44:08;98654.88;;;14.06;35.08
27840;BME280;15207;42.182;24.308;2023-04-06T12:46:34;98653.22;;;14.13;34.51
27840;BME280;15207;42.182;24.308;2023-04-06T12:49:00;98653.00;;;13.98;34.55
27840;BME280;15207;42.182;24.308;2023-04-06T12:51:27;98649.41;;;13.89;35.42
27840;BME280;15207;42.182;24.308;2023-04-06T12:53:53;98641.06;;;14.00;34.50
27840;BME280;15207;42.182;24.308;2023-04-06T12:56:19;98648.09;;;13.93;35.18